Time;durP1;ratioP1;P1;durP2;ratioP2;P2;SDS_P1;SDS_P2;PMS_P1;PMS_P2;Temp;Humidity;BMP_temperature;BMP_pressure;BME280_temperature;BME280_humidity;BME280_pressure;Samples;Min_cycle;Max_cycle;Signal;HPM_P1;HPM_P2
2023/12/29 08:56:05;;;;;;;3.70;3.50;;;11.60;99.90;;;;;;5178141;23;20509;-63
2023/12/29 08:58:32;;;;;;;4.33;4.00;;;11.90;99.90;;;;;;4877665;29;20927;-65
2023/12/29 09:00:57;;;;;;;4.80;4.50;;;12.30;99.90;;;;;;4893176;29;20439;-63
2023/12/29 09:03:23;;;;;;;4.50;4.30;;;12.50;99.90;;;;;;4892116;29;20432;-63
2023/12/29 09:05:49;;;;;;;4.00;3.80;;;12.70;99.90;;;;;;4886704;29;20210;-64
2023/12/29 09:08:14;;;;;;;3.90;3.80;;;13.00;99.90;;;;;;4875487;29;20218;-63
2023/12/29 09:10:40;;;;;;;4.33;3.93;;;13.30;99.90;;;;;;4889949;29;20201;-63
2023/12/29 09:13:06;;;;;;;5.13;4.93;;;13.50;99.90;;;;;;4894856;29;20179;-63
2023/12/29 09:15:32;;;;;;;3.70;3.50;;;13.70;99.90;;;;;;4894143;29;20179;-63
2023/12/29 09:17:58;;;;;;;3.67;3.47;;;13.70;99.90;;;;;;4895341;29;20648;-63
2023/12/29 09:20:24;;;;;;;2.97;2.87;;;13.90;99.90;;;;;;4887258;29;20439;-62
2023/12/29 09:22:50;;;;;;;4.10;3.60;;;13.80;99.90;;;;;;4891235;29;20184;-63
2023/12/29 09:25:16;;;;;;;3.50;3.30;;;13.80;99.90;;;;;;4888807;29;20526;-62
2023/12/29 09:27:42;;;;;;;3.03;2.93;;;13.80;99.90;;;;;;4890986;29;20206;-63
2023/12/29 09:30:08;;;;;;;3.73;3.43;;;13.90;99.90;;;;;;4888436;29;20192;-63
2023/12/29 09:32:34;;;;;;;21.43;16.80;;;13.90;99.90;;;;;;4870306;29;20983;-63
2023/12/29 09:34:59;;;;;;;119.87;81.97;;;13.90;99.90;;;;;;4870129;29;20462;-62
2023/12/29 09:37:25;;;;;;;17.50;14.10;;;13.90;99.90;;;;;;4872891;29;20186;-62
2023/12/29 09:39:51;;;;;;;5.17;4.87;;;14.10;99.90;;;;;;4888793;29;20276;-62
2023/12/29 09:42:24;;;;;;;4.27;3.93;;;14.00;99.90;;;;;;4892642;29;20188;-61
2023/12/29 09:44:51;;;;;;;3.40;3.30;;;14.10;99.90;;;;;;4883836;29;20184;-62
2023/12/29 09:47:23;;;;;;;4.33;4.03;;;14.10;99.90;;;;;;4887461;29;20432;-62
2023/12/29 09:49:51;;;;;;;4.10;3.90;;;14.00;99.90;;;;;;4890190;29;20486;-66
2023/12/29 09:52:18;;;;;;;3.00;2.77;;;13.90;99.90;;;;;;4890307;29;20486;-67
2023/12/29 09:54:44;;;;;;;2.90;2.70;;;13.60;99.90;;;;;;4889218;29;20821;-71
2023/12/29 09:57:10;;;;;;;2.90;2.70;;;13.30;99.90;;;;;;4872248;29;20444;-69
2023/12/29 09:59:38;;;;;;;2.43;2.33;;;13.10;99.90;;;;;;4883632;29;20423;-68
2023/12/29 10:02:15;;;;;;;2.83;2.63;;;12.90;99.90;;;;;;4893931;29;20442;-67
2023/12/29 10:04:40;;;;;;;3.10;2.90;;;12.50;99.90;;;;;;4885241;29;20473;-67
2023/12/29 10:07:10;;;;;;;5.03;4.63;;;12.40;99.90;;;;;;4883913;29;20447;-68
2023/12/29 10:09:38;;;;;;;2.70;2.60;;;12.30;99.90;;;;;;4886176;29;20689;-68
2023/12/29 10:12:08;;;;;;;2.80;2.70;;;12.30;99.90;;;;;;4892103;29;20799;-70
2023/12/29 10:14:43;;;;;;;2.60;2.50;;;12.10;99.90;;;;;;4891452;29;20446;-68
2023/12/29 10:17:35;;;;;;;2.70;2.60;;;12.10;99.90;;;;;;4885332;29;20438;-68
2023/12/29 10:20:15;;;;;;;2.87;2.77;;;12.00;99.90;;;;;;4877500;29;21034;-69
2023/12/29 10:22:50;;;;;;;3.30;3.10;;;12.00;99.90;;;;;;4885576;29;20496;-68
2023/12/29 10:25:16;;;;;;;3.80;3.60;;;12.00;99.90;;;;;;4891738;29;20499;-63
2023/12/29 10:27:43;;;;;;;5.60;5.03;;;12.00;99.90;;;;;;4890500;29;20435;-68
2023/12/29 10:30:11;;;;;;;3.57;3.40;;;12.00;99.90;;;;;;4889607;29;20484;-68
2023/12/29 10:32:37;;;;;;;233.60;144.50;;;12.00;99.90;;;;;;4894944;29;20423;-68
2023/12/29 10:35:10;;;;;;;5.57;4.87;;;12.00;99.90;;;;;;4889502;29;20496;-68
2023/12/29 10:37:37;;;;;;;3.23;3.13;;;12.00;99.90;;;;;;4887829;29;20344;-68
2023/12/29 10:40:03;;;;;;;3.63;3.30;;;12.00;99.90;;;;;;4889848;29;20567;-66
2023/12/29 10:42:29;;;;;;;2.60;2.50;;;12.00;99.90;;;;;;4892914;29;20448;-69
2023/12/29 10:45:24;;;;;;;2.57;2.50;;;12.00;99.90;;;;;;4883921;29;20453;-66
2023/12/29 10:47:51;;;;;;;3.03;2.93;;;12.00;99.90;;;;;;4864481;29;20462;-66
2023/12/29 10:50:16;;;;;;;3.13;2.93;;;11.90;99.90;;;;;;4889657;29;20436;-73
2023/12/29 10:52:42;;;;;;;2.80;2.70;;;11.90;99.90;;;;;;4884961;29;20764;-73
2023/12/29 10:55:10;;;;;;;2.70;2.60;;;12.00;99.90;;;;;;4888494;29;20238;-69
2023/12/29 10:57:37;;;;;;;2.83;2.73;;;12.00;99.90;;;;;;4893603;29;20448;-69
2023/12/29 11:00:06;;;;;;;2.87;2.77;;;12.00;99.90;;;;;;4890725;29;21021;-67
2023/12/29 11:02:33;;;;;;;3.40;3.30;;;12.00;99.90;;;;;;4888960;29;20469;-66
2023/12/29 11:05:08;;;;;;;3.30;3.20;;;12.00;99.90;;;;;;4892576;29;20446;-67
2023/12/29 11:07:36;;;;;;;3.67;3.57;;;12.00;99.90;;;;;;4888485;29;20845;-66
2023/12/29 11:10:09;;;;;;;3.43;3.23;;;12.00;99.90;;;;;;4891049;29;20460;-67
2023/12/29 11:12:36;;;;;;;3.40;3.30;;;12.00;99.90;;;;;;4884580;29;21037;-66
2023/12/29 11:15:06;;;;;;;3.40;3.30;;;12.00;99.90;;;;;;4897930;29;20861;-67
2023/12/29 11:17:34;;;;;;;3.70;3.50;;;11.90;99.90;;;;;;4914528;29;20410;-67
2023/12/29 11:20:04;;;;;;;3.43;3.33;;;12.00;99.90;;;;;;4918665;29;20491;-67
2023/12/29 11:22:31;;;;;;;3.40;3.30;;;12.00;99.90;;;;;;4919039;29;20416;-67
2023/12/29 11:24:59;;;;;;;3.30;3.20;;;12.00;99.90;;;;;;4911374;29;20440;-67
2023/12/29 11:27:31;;;;;;;3.40;3.20;;;12.00;99.90;;;;;;4899852;29;20443;-68
2023/12/29 11:30:01;;;;;;;3.63;3.53;;;12.10;99.90;;;;;;4895625;29;20557;-67
2023/12/29 11:32:30;;;;;;;4.60;4.23;;;12.10;99.90;;;;;;4900106;29;20416;-67
2023/12/29 11:35:28;;;;;;;3.37;3.27;;;12.10;99.90;;;;;;4900152;29;20433;-67
2023/12/29 11:38:00;;;;;;;3.60;3.40;;;12.10;99.90;;;;;;4898819;29;20786;-68
2023/12/29 11:40:29;;;;;;;4.00;3.80;;;12.10;99.90;;;;;;4899594;29;20770;-66
2023/12/29 11:43:00;;;;;;;4.80;4.00;;;12.10;99.90;;;;;;4900583;29;20960;-67
2023/12/29 11:45:34;;;;;;;3.83;3.63;;;12.20;99.90;;;;;;4898484;29;20525;-66
2023/12/29 11:48:02;;;;;;;3.90;3.70;;;12.20;99.90;;;;;;4900171;29;20417;-66
2023/12/29 11:50:30;;;;;;;3.80;3.60;;;12.20;99.90;;;;;;4898704;29;20495;-68
2023/12/29 11:52:56;;;;;;;3.90;3.70;;;12.30;99.90;;;;;;4882743;29;20492;-67
2023/12/29 11:55:35;;;;;;;3.87;3.67;;;12.30;99.90;;;;;;4865491;29;20474;-66
2023/12/29 11:58:04;;;;;;;3.83;3.47;;;12.40;99.90;;;;;;4900518;29;20483;-67
2023/12/29 12:00:46;;;;;;;3.70;3.50;;;12.40;99.90;;;;;;4898817;29;20774;-67
2023/12/29 12:03:25;;;;;;;3.80;3.60;;;12.50;99.90;;;;;;4879059;29;20794;-68
2023/12/29 12:05:54;;;;;;;3.33;3.13;;;12.50;99.90;;;;;;4897270;29;20439;-67
2023/12/29 12:08:35;;;;;;;3.77;3.57;;;12.50;99.90;;;;;;4885653;29;20461;-67
2023/12/29 12:11:43;;;;;;;4.17;3.87;;;12.50;99.90;;;;;;4875864;29;20807;-66
2023/12/29 12:14:09;;;;;;;9.20;6.83;;;12.50;99.90;;;;;;4864733;29;20442;-66
2023/12/29 12:16:49;;;;;;;5.90;5.17;;;12.50;99.90;;;;;;4874355;29;20436;-65
2023/12/29 12:19:16;;;;;;;5.10;4.53;;;12.60;99.90;;;;;;4898142;29;20237;-66
2023/12/29 12:21:51;;;;;;;4.00;3.70;;;12.60;99.90;;;;;;4897525;29;20485;-65
2023/12/29 12:24:19;;;;;;;199.57;153.27;;;12.60;99.90;;;;;;4885429;29;20436;-66
2023/12/29 12:26:45;;;;;;;145.80;99.13;;;12.60;99.90;;;;;;4881761;29;20941;-65
2023/12/29 12:29:14;;;;;;;524.60;348.43;;;12.60;99.90;;;;;;4894930;29;20479;-64
2023/12/29 12:31:55;;;;;;;149.60;89.97;;;12.60;99.90;;;;;;4895070;29;20438;-66
2023/12/29 12:34:22;;;;;;;5.50;5.10;;;12.60;99.90;;;;;;4899076;29;20453;-65
2023/12/29 12:36:51;;;;;;;4.30;4.00;;;12.70;99.90;;;;;;4897952;29;20490;-66
2023/12/29 12:39:18;;;;;;;5.10;4.73;;;12.60;99.90;;;;;;4898148;29;20436;-65
2023/12/29 12:41:45;;;;;;;3.60;3.30;;;12.60;99.90;;;;;;4881671;29;20420;-66
2023/12/29 12:44:12;;;;;;;4.07;3.70;;;12.60;99.90;;;;;;4895477;29;20937;-65
2023/12/29 12:46:47;;;;;;;3.93;3.73;;;12.60;99.90;;;;;;4905122;29;20419;-66
2023/12/29 12:49:14;;;;;;;3.60;3.40;;;12.60;99.90;;;;;;4909123;29;20457;-66
2023/12/29 12:51:40;;;;;;;4.30;4.00;;;12.60;99.90;;;;;;4902031;29;20440;-65
2023/12/29 12:54:06;;;;;;;3.90;3.77;;;12.60;99.90;;;;;;4906696;29;20516;-66
2023/12/29 12:56:33;;;;;;;5.60;4.23;;;12.60;99.90;;;;;;4891512;29;20232;-65
2023/12/29 12:59:01;;;;;;;4.20;3.90;;;12.60;99.90;;;;;;4896242;29;20475;-67
2023/12/29 13:01:28;;;;;;;4.10;3.70;;;12.60;99.90;;;;;;4892875;29;20426;-65
2023/12/29 13:03:56;;;;;;;3.33;3.17;;;12.50;99.90;;;;;;4896598;29;20759;-66
2023/12/29 13:06:22;;;;;;;3.23;3.10;;;12.40;99.90;;;;;;4908416;29;20403;-65
2023/12/29 13:08:52;;;;;;;3.27;3.17;;;12.40;99.90;;;;;;4861790;29;20469;-67
2023/12/29 13:11:24;;;;;;;3.40;3.20;;;12.30;99.90;;;;;;4891698;29;20437;-66
2023/12/29 13:13:50;;;;;;;3.73;3.63;;;12.30;99.90;;;;;;4894373;29;20470;-66
2023/12/29 13:16:15;;;;;;;4.73;3.63;;;12.20;99.90;;;;;;4905525;29;20441;-66
2023/12/29 13:18:41;;;;;;;3.47;3.20;;;12.30;99.90;;;;;;4881990;29;20582;-66
2023/12/29 13:21:09;;;;;;;3.57;3.10;;;12.30;99.90;;;;;;4895470;29;20193;-66
2023/12/29 13:23:35;;;;;;;3.93;3.47;;;12.30;99.90;;;;;;4896512;29;20522;-66
2023/12/29 13:26:09;;;;;;;3.40;3.30;;;12.40;99.90;;;;;;4905169;29;20459;-67
2023/12/29 13:28:36;;;;;;;138.23;93.87;;;12.40;99.90;;;;;;4883042;29;20460;-65
2023/12/29 13:31:04;;;;;;;8.43;7.60;;;12.40;99.90;;;;;;4902952;29;20438;-64
2023/12/29 13:33:57;;;;;;;3.43;3.23;;;12.40;99.90;;;;;;4908125;29;20434;-66
2023/12/29 13:36:40;;;;;;;3.40;3.30;;;12.40;99.90;;;;;;4895169;29;20442;-66
2023/12/29 13:39:23;;;;;;;3.60;3.40;;;12.30;99.90;;;;;;4898090;29;20882;-67
2023/12/29 13:41:49;;;;;;;5.37;4.80;;;12.40;99.90;;;;;;4898931;29;20754;-67
2023/12/29 13:44:16;;;;;;;3.80;3.60;;;12.40;99.90;;;;;;4905883;29;20434;-65
2023/12/29 13:46:42;;;;;;;4.60;4.30;;;12.40;99.90;;;;;;4878275;29;20774;-66
2023/12/29 13:49:09;;;;;;;3.93;3.57;;;12.40;99.90;;;;;;4908831;29;20477;-67
2023/12/29 13:51:35;;;;;;;3.90;3.70;;;12.40;99.90;;;;;;4895256;29;20429;-66
2023/12/29 13:54:03;;;;;;;3.33;3.23;;;12.50;99.90;;;;;;4908464;29;20929;-65
2023/12/29 13:56:29;;;;;;;3.50;3.30;;;12.50;99.90;;;;;;4903872;29;20481;-65
2023/12/29 13:58:55;;;;;;;3.40;3.30;;;12.50;99.90;;;;;;4889825;29;20478;-66
2023/12/29 14:01:21;;;;;;;3.37;3.27;;;12.50;99.90;;;;;;4879067;29;20846;-65
2023/12/29 14:03:59;;;;;;;3.80;3.70;;;12.40;99.90;;;;;;4907123;29;20506;-66
2023/12/29 14:06:35;;;;;;;3.50;3.30;;;12.40;99.90;;;;;;4891622;29;20457;-63
2023/12/29 14:09:02;;;;;;;4.10;3.70;;;12.40;99.90;;;;;;4905333;29;20445;-68
2023/12/29 14:11:30;;;;;;;3.50;3.30;;;12.40;99.90;;;;;;4879210;29;20476;-64
2023/12/29 14:13:56;;;;;;;3.63;3.43;;;12.30;99.90;;;;;;4905137;29;20483;-66
2023/12/29 14:16:22;;;;;;;3.50;3.30;;;12.30;99.90;;;;;;4898259;29;20424;-67
2023/12/29 14:18:59;;;;;;;3.53;3.43;;;12.30;99.90;;;;;;4907703;29;21127;-67
2023/12/29 14:21:30;;;;;;;151.03;89.57;;;12.30;99.90;;;;;;4901054;29;20452;-67
2023/12/29 14:24:14;;;;;;;9.37;7.10;;;12.30;99.90;;;;;;4895147;29;20934;-66
2023/12/29 14:26:53;;;;;;;4.07;3.87;;;12.30;99.90;;;;;;4902027;29;20986;-67
2023/12/29 14:29:20;;;;;;;4.70;4.40;;;12.30;99.90;;;;;;4878322;29;20467;-66
2023/12/29 14:31:47;;;;;;;3.97;3.87;;;12.40;99.90;;;;;;4883253;29;20428;-67
2023/12/29 14:34:13;;;;;;;4.33;4.00;;;12.30;99.90;;;;;;4880216;29;20414;-66
2023/12/29 14:36:40;;;;;;;4.40;4.20;;;12.30;99.90;;;;;;4895715;29;20514;-67
2023/12/29 14:39:07;;;;;;;3.93;3.70;;;12.40;99.90;;;;;;4895667;29;20440;-66
2023/12/29 14:41:33;;;;;;;3.67;3.47;;;12.40;99.90;;;;;;4894196;29;20455;-63
2023/12/29 14:43:59;;;;;;;3.97;3.63;;;12.30;99.90;;;;;;4888375;29;20427;-67
2023/12/29 14:46:25;;;;;;;109.53;79.67;;;12.30;99.90;;;;;;4878854;29;20415;-66
2023/12/29 14:48:53;;;;;;;302.20;231.17;;;12.40;99.90;;;;;;4896585;29;20651;-68
2023/12/29 14:51:18;;;;;;;7.87;7.10;;;12.40;99.90;;;;;;4896186;29;20429;-69
2023/12/29 14:53:48;;;;;;;4.00;3.87;;;12.40;99.90;;;;;;4894510;29;20777;-70
2023/12/29 14:56:15;;;;;;;3.97;3.87;;;12.50;99.90;;;;;;4866324;29;20227;-70
2023/12/29 14:58:41;;;;;;;3.70;3.50;;;12.50;99.90;;;;;;4890907;29;20451;-69
2023/12/29 15:01:07;;;;;;;4.17;3.70;;;12.40;99.90;;;;;;4896163;29;20426;-67
2023/12/29 15:03:34;;;;;;;3.20;3.10;;;12.40;99.90;;;;;;4887641;29;20442;-70
2023/12/29 15:06:01;;;;;;;3.00;2.90;;;12.30;99.90;;;;;;4895835;29;20564;-73
2023/12/29 15:08:31;;;;;;;3.00;2.90;;;12.30;99.90;;;;;;4887553;29;20470;-68
2023/12/29 15:10:58;;;;;;;2.90;2.80;;;12.30;99.90;;;;;;4880115;29;20545;-68
2023/12/29 15:13:24;;;;;;;2.90;2.80;;;12.30;99.90;;;;;;4895040;29;20482;-69
2023/12/29 15:15:50;;;;;;;2.50;2.40;;;12.30;99.90;;;;;;4876556;29;20766;-68
2023/12/29 15:18:17;;;;;;;2.50;2.40;;;12.40;99.90;;;;;;4879919;29;20443;-69
2023/12/29 15:20:43;;;;;;;2.70;2.50;;;12.40;99.90;;;;;;4874194;29;20777;-69
2023/12/29 15:23:09;;;;;;;2.83;2.73;;;12.30;99.90;;;;;;4871664;29;20434;-69
2023/12/29 15:25:34;;;;;;;2.93;2.73;;;12.30;99.90;;;;;;4878760;29;20460;-68
2023/12/29 15:28:00;;;;;;;2.37;2.27;;;12.30;99.90;;;;;;4897297;29;20415;-69
2023/12/29 15:30:26;;;;;;;2.03;2.03;;;12.30;99.90;;;;;;4879806;29;20202;-69
2023/12/29 15:32:51;;;;;;;2.60;2.50;;;12.20;99.90;;;;;;4895972;29;20889;-70
2023/12/29 15:35:17;;;;;;;2.40;2.30;;;12.20;99.90;;;;;;4880059;29;20192;-69
2023/12/29 15:37:43;;;;;;;2.53;2.43;;;12.20;99.90;;;;;;4879058;29;20180;-67
2023/12/29 15:40:10;;;;;;;2.30;2.20;;;12.10;99.90;;;;;;4896250;29;20187;-69
2023/12/29 15:42:35;;;;;;;2.10;2.10;;;12.10;99.90;;;;;;4895915;29;20401;-69
2023/12/29 15:45:01;;;;;;;2.30;2.20;;;12.10;99.90;;;;;;4897143;29;20760;-68
2023/12/29 15:47:27;;;;;;;2.10;2.10;;;12.10;99.90;;;;;;4879666;29;20187;-69
2023/12/29 15:49:53;;;;;;;2.40;2.30;;;12.10;99.90;;;;;;4895360;29;20755;-70
2023/12/29 15:52:18;;;;;;;2.30;2.23;;;12.10;99.90;;;;;;4894004;29;20180;-70
2023/12/29 15:54:45;;;;;;;2.53;2.53;;;12.10;99.90;;;;;;4863866;29;20234;-70
2023/12/29 15:57:10;;;;;;;3.50;3.37;;;12.10;99.90;;;;;;4896177;29;20441;-70
2023/12/29 15:59:36;;;;;;;3.03;2.83;;;12.10;99.90;;;;;;4894581;29;20440;-66
2023/12/29 16:02:02;;;;;;;3.17;2.97;;;12.10;99.90;;;;;;4879855;29;20198;-68
2023/12/29 16:04:28;;;;;;;2.90;2.80;;;12.10;99.90;;;;;;4896918;29;20430;-69
2023/12/29 16:06:55;;;;;;;3.50;3.33;;;12.10;99.90;;;;;;4899075;29;20443;-69
2023/12/29 16:09:21;;;;;;;3.37;3.27;;;12.10;99.90;;;;;;4900003;29;20461;-70
2023/12/29 16:11:49;;;;;;;4.00;3.80;;;12.10;99.90;;;;;;4899004;29;20870;-69
2023/12/29 16:14:17;;;;;;;3.50;3.30;;;12.10;99.90;;;;;;4882795;29;20186;-68
2023/12/29 16:16:43;;;;;;;4.17;3.97;;;12.10;99.90;;;;;;4899657;29;20432;-69
2023/12/29 16:19:09;;;;;;;4.00;3.80;;;12.10;99.90;;;;;;4882283;29;20439;-69
2023/12/29 16:21:39;;;;;;;3.80;3.50;;;12.20;99.90;;;;;;4899404;29;20523;-69
2023/12/29 16:24:06;;;;;;;3.37;3.27;;;12.10;99.90;;;;;;4883082;29;20661;-70
2023/12/29 16:26:32;;;;;;;3.80;3.60;;;12.10;99.90;;;;;;4881186;29;20435;-68
2023/12/29 16:28:58;;;;;;;3.30;3.20;;;12.10;99.90;;;;;;4880839;29;20547;-68
2023/12/29 16:31:23;;;;;;;3.67;3.47;;;12.10;99.90;;;;;;4876524;29;20439;-69
2023/12/29 16:33:49;;;;;;;3.77;3.60;;;12.10;99.90;;;;;;4869546;29;20180;-69
2023/12/29 16:36:15;;;;;;;3.50;3.30;;;12.10;99.90;;;;;;4899824;29;20530;-69
2023/12/29 16:38:48;;;;;;;3.60;3.43;;;12.10;99.90;;;;;;4898363;29;20217;-69
2023/12/29 16:41:15;;;;;;;3.00;2.90;;;12.10;99.90;;;;;;4898337;29;20179;-69
2023/12/29 16:43:41;;;;;;;3.70;3.27;;;12.20;99.90;;;;;;4881443;29;20429;-68
2023/12/29 16:46:07;;;;;;;3.10;3.00;;;12.10;99.90;;;;;;4882636;29;20421;-70
2023/12/29 16:48:33;;;;;;;3.60;3.40;;;12.10;99.90;;;;;;4866520;29;20469;-69
2023/12/29 16:50:59;;;;;;;3.13;3.03;;;12.00;99.90;;;;;;4886999;29;20428;-70
2023/12/29 16:53:25;;;;;;;3.63;3.53;;;12.10;99.90;;;;;;4882618;29;20431;-69
2023/12/29 16:55:51;;;;;;;3.93;3.77;;;12.00;99.90;;;;;;4897720;29;20491;-70
2023/12/29 16:58:20;;;;;;;3.10;3.00;;;12.10;99.90;;;;;;4881790;29;20197;-69
2023/12/29 17:00:52;;;;;;;3.10;3.00;;;12.10;99.90;;;;;;4880597;29;21001;-69
2023/12/29 17:03:19;;;;;;;3.50;3.40;;;12.10;99.90;;;;;;4881662;29;20436;-69
2023/12/29 17:05:45;;;;;;;3.50;3.40;;;12.10;99.90;;;;;;4866250;29;20421;-71
2023/12/29 17:08:11;;;;;;;3.70;3.60;;;12.10;99.90;;;;;;4881730;29;20779;-69
2023/12/29 17:10:37;;;;;;;3.70;3.60;;;12.10;99.90;;;;;;4881621;29;20446;-69
2023/12/29 17:13:04;;;;;;;4.43;4.23;;;12.10;99.90;;;;;;4899174;29;20275;-69
2023/12/29 17:15:30;;;;;;;5.37;4.87;;;12.10;99.90;;;;;;4898303;29;20451;-70
2023/12/29 17:17:56;;;;;;;3.50;3.37;;;12.10;99.90;;;;;;4897429;29;20433;-70
2023/12/29 17:20:21;;;;;;;3.30;3.20;;;12.10;99.90;;;;;;4898992;29;20187;-69
2023/12/29 17:22:47;;;;;;;3.40;3.30;;;12.10;99.90;;;;;;4897988;29;20435;-69
2023/12/29 17:25:13;;;;;;;3.10;3.00;;;12.10;99.90;;;;;;4896499;29;20176;-69
2023/12/29 17:27:39;;;;;;;2.80;2.70;;;12.10;99.90;;;;;;4897732;29;20483;-62
2023/12/29 17:30:05;;;;;;;2.40;2.30;;;12.00;99.90;;;;;;4881660;29;20465;-71
2023/12/29 17:32:31;;;;;;;2.60;2.50;;;12.00;99.90;;;;;;4881435;29;20180;-70
2023/12/29 17:34:57;;;;;;;3.80;3.60;;;12.00;99.90;;;;;;4881307;29;20485;-68
2023/12/29 17:37:25;;;;;;;3.70;3.50;;;12.00;99.90;;;;;;4897820;29;20429;-70
2023/12/29 17:39:50;;;;;;;4.40;4.20;;;11.90;99.90;;;;;;4897105;29;20467;-70
2023/12/29 17:42:16;;;;;;;4.60;4.33;;;11.90;99.90;;;;;;4898558;29;20442;-70
2023/12/29 17:44:42;;;;;;;4.83;4.53;;;12.00;99.90;;;;;;4879681;29;20179;-67
2023/12/29 17:47:11;;;;;;;5.00;4.57;;;12.00;99.90;;;;;;4897887;29;20429;-69
2023/12/29 17:49:36;;;;;;;5.70;4.20;;;12.00;99.90;;;;;;4897661;29;20214;-67
2023/12/29 17:52:02;;;;;;;3.83;3.63;;;12.00;99.90;;;;;;4862478;29;20772;-69
2023/12/29 17:54:28;;;;;;;3.67;3.50;;;12.00;99.90;;;;;;4890348;29;20191;-69
2023/12/29 17:56:54;;;;;;;3.97;3.67;;;12.10;99.90;;;;;;4896023;29;20451;-65
2023/12/29 17:59:20;;;;;;;3.87;3.67;;;12.00;99.90;;;;;;4885342;29;20192;-71
2023/12/29 18:01:49;;;;;;;3.87;3.77;;;12.00;99.90;;;;;;4893825;29;20621;-64
2023/12/29 18:04:15;;;;;;;3.60;3.30;;;12.00;99.90;;;;;;4891964;29;20246;-68
2023/12/29 18:06:42;;;;;;;3.70;3.50;;;12.10;99.90;;;;;;4875122;29;20442;-63
2023/12/29 18:09:12;;;;;;;3.40;3.30;;;12.20;99.90;;;;;;4895735;29;20460;-67
2023/12/29 18:11:38;;;;;;;3.33;3.13;;;12.20;99.90;;;;;;4879196;29;20529;-67
2023/12/29 18:14:05;;;;;;;3.57;3.37;;;12.30;99.90;;;;;;4878466;29;21092;-67
2023/12/29 18:16:33;;;;;;;3.90;3.70;;;12.30;99.90;;;;;;4891642;29;20530;-65
2023/12/29 18:19:00;;;;;;;3.67;3.47;;;12.30;99.90;;;;;;4896763;29;20430;-66
2023/12/29 18:21:26;;;;;;;3.40;3.30;;;12.20;99.90;;;;;;4880111;29;20518;-66
2023/12/29 18:23:52;;;;;;;3.07;2.97;;;12.20;99.90;;;;;;4889204;29;20429;-66
2023/12/29 18:26:18;;;;;;;3.53;3.33;;;12.20;99.90;;;;;;4897710;29;20449;-67
2023/12/29 18:28:44;;;;;;;3.77;3.30;;;12.20;99.90;;;;;;4882594;29;20216;-62
2023/12/29 18:31:11;;;;;;;4.00;3.67;;;12.20;99.90;;;;;;4896666;29;20488;-67
2023/12/29 18:33:39;;;;;;;3.40;3.20;;;12.10;99.90;;;;;;4897311;29;20476;-66
2023/12/29 18:36:06;;;;;;;3.83;3.47;;;12.10;99.90;;;;;;4896920;29;20817;-67
2023/12/29 18:38:32;;;;;;;3.83;3.63;;;12.00;99.90;;;;;;4896602;29;20940;-67
2023/12/29 18:40:59;;;;;;;3.50;3.40;;;12.10;99.90;;;;;;4880532;29;20455;-67
2023/12/29 18:43:25;;;;;;;4.40;3.90;;;12.00;99.90;;;;;;4880354;29;20425;-67
2023/12/29 18:45:51;;;;;;;3.60;3.10;;;12.10;99.90;;;;;;4891754;29;20421;-67
2023/12/29 18:48:17;;;;;;;3.57;3.37;;;12.00;99.90;;;;;;4896403;29;20210;-67
2023/12/29 18:50:43;;;;;;;5.70;3.73;;;12.00;99.90;;;;;;4883384;29;20825;-66
2023/12/29 18:53:08;;;;;;;3.90;3.70;;;12.10;99.90;;;;;;4870174;29;20229;-68
2023/12/29 18:55:35;;;;;;;4.10;3.87;;;12.00;99.90;;;;;;4892734;29;20227;-67
2023/12/29 18:58:01;;;;;;;4.47;4.17;;;12.00;99.90;;;;;;4885046;29;20199;-67
2023/12/29 19:00:27;;;;;;;4.40;4.00;;;12.00;99.90;;;;;;4879566;29;20437;-66
2023/12/29 19:02:54;;;;;;;3.70;3.60;;;12.00;99.90;;;;;;4895531;29;20425;-66
2023/12/29 19:05:20;;;;;;;4.23;3.80;;;12.00;99.90;;;;;;4896343;29;20193;-66
2023/12/29 19:07:46;;;;;;;6.93;3.97;;;12.00;99.90;;;;;;4882704;29;20931;-61
2023/12/29 19:10:13;;;;;;;5.30;4.80;;;12.00;99.90;;;;;;4873780;29;20461;-66
2023/12/29 19:12:39;;;;;;;5.30;4.80;;;12.00;99.90;;;;;;4895111;29;20464;-66
2023/12/29 19:15:06;;;;;;;3.90;3.60;;;11.90;99.90;;;;;;4894705;29;20518;-66
2023/12/29 19:17:31;;;;;;;4.57;4.27;;;11.90;99.90;;;;;;4889813;29;20184;-68
2023/12/29 19:19:57;;;;;;;4.20;3.80;;;11.90;99.90;;;;;;4892055;29;20797;-65
2023/12/29 19:22:23;;;;;;;4.23;3.70;;;11.90;99.90;;;;;;4904672;29;20232;-67
2023/12/29 19:24:49;;;;;;;4.53;3.63;;;12.00;99.90;;;;;;4904549;29;20821;-61
2023/12/29 19:27:16;;;;;;;3.90;3.50;;;12.00;99.90;;;;;;4900724;29;20640;-67
2023/12/29 19:29:43;;;;;;;3.50;3.20;;;12.00;99.90;;;;;;4897049;29;20255;-66
2023/12/29 19:32:09;;;;;;;4.17;3.80;;;12.00;99.90;;;;;;4901892;29;20504;-67
2023/12/29 19:34:35;;;;;;;4.73;4.33;;;12.00;99.90;;;;;;4906007;29;20465;-67
2023/12/29 19:37:03;;;;;;;5.20;4.70;;;12.00;99.90;;;;;;4880158;29;20428;-66
2023/12/29 19:39:29;;;;;;;4.93;3.87;;;12.00;99.90;;;;;;4905684;29;20489;-67
2023/12/29 19:41:55;;;;;;;4.20;3.30;;;12.00;99.90;;;;;;4895507;29;20423;-68
2023/12/29 19:44:21;;;;;;;3.50;3.20;;;12.00;99.90;;;;;;4892439;29;20958;-66
2023/12/29 19:46:47;;;;;;;3.17;2.93;;;12.00;99.90;;;;;;4909333;29;20179;-65
2023/12/29 19:49:13;;;;;;;3.50;3.20;;;12.00;99.90;;;;;;4901562;29;20295;-65
2023/12/29 19:51:39;;;;;;;3.17;2.90;;;12.10;99.90;;;;;;4902959;29;20441;-64
2023/12/29 19:54:04;;;;;;;5.77;3.23;;;12.10;99.90;;;;;;4897617;29;20512;-65
2023/12/29 19:56:31;;;;;;;3.50;3.20;;;12.10;99.90;;;;;;4893857;29;20238;-65
2023/12/29 19:58:57;;;;;;;4.20;3.17;;;12.20;99.90;;;;;;4888770;29;20188;-65
2023/12/29 20:01:24;;;;;;;3.23;2.70;;;12.20;99.90;;;;;;4894038;29;20468;-66
2023/12/29 20:03:50;;;;;;;6.70;2.93;;;12.10;99.90;;;;;;4901097;29;20465;-61
2023/12/29 20:06:26;;;;;;;3.40;3.10;;;12.00;99.90;;;;;;4905796;29;21180;-66
2023/12/29 20:08:52;;;;;;;20.87;14.70;;;12.00;99.90;;;;;;4899520;29;20221;-62
2023/12/29 20:11:21;;;;;;;12.73;9.53;;;11.90;99.90;;;;;;4896153;29;20501;-65
2023/12/29 20:13:47;;;;;;;8.07;5.40;;;12.00;99.90;;;;;;4901042;29;20557;-64
2023/12/29 20:16:23;;;;;;;5.07;4.60;;;11.90;99.90;;;;;;4901690;29;20881;-66
2023/12/29 20:18:52;;;;;;;3.10;2.90;;;11.90;99.90;;;;;;4899990;29;20181;-62
2023/12/29 20:21:25;;;;;;;3.60;3.17;;;11.90;99.90;;;;;;4906111;29;20461;-66
2023/12/29 20:23:51;;;;;;;5.47;3.83;;;11.90;99.90;;;;;;4889050;29;20979;-62
2023/12/29 20:26:22;;;;;;;3.50;3.30;;;11.90;99.90;;;;;;4903060;29;20448;-65
2023/12/29 20:28:50;;;;;;;5.90;3.30;;;11.90;99.90;;;;;;4882068;29;20487;-63
2023/12/29 20:31:26;;;;;;;4.00;2.83;;;11.90;99.90;;;;;;4901301;29;20437;-64
2023/12/29 20:33:52;;;;;;;4.50;3.10;;;11.90;99.90;;;;;;4885182;29;20441;-61
2023/12/29 20:36:18;;;;;;;4.90;3.20;;;12.00;99.90;;;;;;4895569;29;20416;-65
2023/12/29 20:38:45;;;;;;;3.70;3.47;;;12.00;99.90;;;;;;4895872;29;20444;-64
2023/12/29 20:41:12;;;;;;;3.87;3.63;;;12.00;99.90;;;;;;4882609;29;20429;-66
2023/12/29 20:43:38;;;;;;;3.33;3.07;;;12.10;99.90;;;;;;4890025;29;20440;-65
2023/12/29 20:46:04;;;;;;;53.60;41.00;;;12.10;99.90;;;;;;4894946;29;20411;-64
2023/12/29 20:48:30;;;;;;;53.10;38.13;;;12.00;99.90;;;;;;4880410;29;20530;-65
2023/12/29 20:50:55;;;;;;;7.20;6.50;;;12.00;99.90;;;;;;4887447;29;20958;-67
2023/12/29 20:53:22;;;;;;;3.37;3.00;;;12.00;99.90;;;;;;4887007;29;20748;-66
2023/12/29 20:55:48;;;;;;;3.43;3.23;;;12.00;99.90;;;;;;4871885;29;20231;-67
2023/12/29 20:58:14;;;;;;;3.50;3.20;;;12.00;99.90;;;;;;4894239;29;20532;-64
2023/12/29 21:00:40;;;;;;;4.97;3.63;;;12.00;99.90;;;;;;4885243;29;20496;-64
2023/12/29 21:03:06;;;;;;;3.50;3.20;;;12.00;99.90;;;;;;4861121;29;20437;-65
2023/12/29 21:05:33;;;;;;;3.73;3.53;;;11.90;99.90;;;;;;4869847;29;20631;-64
2023/12/29 21:07:59;;;;;;;4.63;3.60;;;12.00;99.90;;;;;;4894403;29;20702;-65
2023/12/29 21:10:24;;;;;;;4.07;3.87;;;12.00;99.90;;;;;;4893426;29;20592;-65
2023/12/29 21:12:50;;;;;;;3.97;3.63;;;12.00;99.90;;;;;;4894211;29;20431;-61
2023/12/29 21:15:16;;;;;;;8.37;4.43;;;11.90;99.90;;;;;;4881721;29;20277;-64
2023/12/29 21:17:42;;;;;;;4.80;3.80;;;11.90;99.90;;;;;;4875449;29;20185;-65
2023/12/29 21:20:10;;;;;;;3.50;3.20;;;11.90;99.90;;;;;;4887334;29;20529;-64
2023/12/29 21:22:37;;;;;;;5.57;3.30;;;11.90;99.90;;;;;;4877489;29;20263;-65
2023/12/29 21:25:03;;;;;;;4.57;3.73;;;11.90;99.90;;;;;;4894263;29;20445;-65
2023/12/29 21:27:31;;;;;;;4.30;4.00;;;11.90;99.90;;;;;;4863510;29;20595;-65
2023/12/29 21:29:58;;;;;;;5.20;3.77;;;11.90;99.90;;;;;;4877101;29;20482;-65
2023/12/29 21:32:28;;;;;;;4.97;4.20;;;11.90;99.90;;;;;;4878176;29;20430;-65
2023/12/29 21:34:58;;;;;;;7.27;4.00;;;11.90;99.90;;;;;;4894586;29;20408;-60
2023/12/29 21:37:25;;;;;;;5.20;4.53;;;11.90;99.90;;;;;;4893853;29;21077;-64
2023/12/29 21:39:52;;;;;;;3.40;3.10;;;12.00;99.90;;;;;;4877063;29;20465;-61
2023/12/29 21:42:18;;;;;;;5.23;3.30;;;12.00;99.90;;;;;;4894765;29;20424;-65
2023/12/29 21:44:45;;;;;;;4.63;3.30;;;12.00;99.90;;;;;;4876597;29;20434;-65